createdAt,value
2023-03-22T00:02:46.051Z,5.67
2023-03-22T00:05:59.677Z,5.03
2023-03-22T00:09:08.010Z,5.87
2023-03-22T00:12:16.269Z,6.20
2023-03-22T00:15:24.958Z,7.17
2023-03-22T00:18:33.531Z,6.77
2023-03-22T00:21:43.241Z,6.80
2023-03-22T00:24:51.584Z,6.37
2023-03-22T00:27:59.911Z,7.10
2023-03-22T00:31:09.174Z,6.87
2023-03-22T00:34:17.666Z,6.70
2023-03-22T00:37:34.008Z,6.87
2023-03-22T00:40:42.891Z,6.87
2023-03-22T00:43:52.242Z,6.23
2023-03-22T00:47:00.678Z,6.13
2023-03-22T00:50:09.928Z,5.20
2023-03-22T00:53:19.817Z,5.40
2023-03-22T00:56:28.927Z,5.27
2023-03-22T00:59:43.251Z,5.13
2023-03-22T01:02:53.778Z,5.30
2023-03-22T01:06:03.680Z,5.17
2023-03-22T01:09:14.993Z,4.53
2023-03-22T01:12:23.442Z,5.13
2023-03-22T01:15:32.078Z,5.53
2023-03-22T01:18:40.809Z,5.23
2023-03-22T01:21:50.046Z,5.90
2023-03-22T01:24:59.843Z,7.00
2023-03-22T01:28:08.765Z,6.87
2023-03-22T01:31:17.271Z,7.20
2023-03-22T01:34:26.605Z,7.10
2023-03-22T01:37:36.616Z,7.17
2023-03-22T01:40:46.694Z,7.30
2023-03-22T01:44:12.676Z,7.70
2023-03-22T01:47:21.399Z,7.87
2023-03-22T01:50:31.271Z,8.00
2023-03-22T01:53:44.088Z,8.67
2023-03-22T01:56:54.125Z,8.63
2023-03-22T02:00:15.478Z,9.90
2023-03-22T02:03:49.832Z,9.43
2023-03-22T02:07:00.704Z,9.13
2023-03-22T02:10:13.831Z,9.63
2023-03-22T02:13:56.162Z,9.30
2023-03-22T02:17:32.058Z,9.80
2023-03-22T02:21:16.036Z,9.83
2023-03-22T02:25:01.937Z,8.60
2023-03-22T02:28:18.789Z,9.13
2023-03-22T02:31:51.080Z,8.27
2023-03-22T02:35:34.788Z,8.53
2023-03-22T02:39:16.776Z,8.70
2023-03-22T02:42:37.060Z,7.93
2023-03-22T02:45:51.229Z,9.03
2023-03-22T02:49:07.891Z,9.50
2023-03-22T02:52:20.965Z,8.50
2023-03-22T02:55:34.881Z,8.93
2023-03-22T02:58:47.626Z,8.30
2023-03-22T03:01:58.447Z,9.00
2023-03-22T03:05:08.301Z,9.40
2023-03-22T03:08:19.108Z,10.40
2023-03-22T03:11:32.026Z,11.70
2023-03-22T03:14:40.949Z,11.47
2023-03-22T03:18:13.785Z,10.17
2023-03-22T03:21:34.843Z,10.80
2023-03-22T03:24:50.205Z,10.67
2023-03-22T03:28:10.094Z,10.50
2023-03-22T03:31:27.702Z,10.00
2023-03-22T03:34:42.579Z,9.10
2023-03-22T03:37:53.851Z,9.97
2023-03-22T03:41:05.687Z,10.20
2023-03-22T03:44:17.631Z,10.20
2023-03-22T03:47:29.715Z,9.70
2023-03-22T03:50:38.192Z,9.77
2023-03-22T03:53:47.191Z,9.73
2023-03-22T03:56:56.098Z,10.03
2023-03-22T04:00:07.105Z,9.80
2023-03-22T04:03:33.770Z,10.53
2023-03-22T04:06:44.994Z,9.60
2023-03-22T04:09:58.404Z,8.83
2023-03-22T04:13:11.771Z,9.00
2023-03-22T04:16:21.787Z,8.87
2023-03-22T04:19:30.988Z,8.80
2023-03-22T04:22:39.904Z,8.00
2023-03-22T04:25:50.271Z,7.93
2023-03-22T04:29:05.655Z,8.00
2023-03-22T04:32:18.936Z,7.40
2023-03-22T04:35:27.573Z,7.60
2023-03-22T04:38:37.393Z,7.20
2023-03-22T04:41:45.832Z,7.67
2023-03-22T04:44:54.247Z,7.17
2023-03-22T04:48:04.147Z,7.50
2023-03-22T04:51:14.242Z,7.50
2023-03-22T04:54:32.620Z,7.27
2023-03-22T04:57:40.989Z,7.47
2023-03-22T05:00:49.415Z,6.80
2023-03-22T05:03:59.202Z,6.90
2023-03-22T05:07:08.253Z,7.70
2023-03-22T05:10:25.036Z,6.97
2023-03-22T05:13:34.078Z,6.80
2023-03-22T05:16:42.705Z,10.07
2023-03-22T05:19:52.377Z,9.33
2023-03-22T05:23:02.623Z,7.47
2023-03-22T05:26:16.095Z,7.20
2023-03-22T05:29:24.974Z,8.00
2023-03-22T05:32:49.608Z,7.43
2023-03-22T05:35:59.520Z,7.17
2023-03-22T05:39:10.985Z,7.50
2023-03-22T05:42:19.424Z,7.63
2023-03-22T05:45:28.018Z,9.67
2023-03-22T05:48:45.045Z,9.37
2023-03-22T05:51:56.003Z,9.60
2023-03-22T05:55:08.219Z,10.23
2023-03-22T05:58:19.374Z,9.70
2023-03-22T06:01:30.143Z,11.27
2023-03-22T06:04:53.394Z,10.97
2023-03-22T06:08:04.004Z,11.63
2023-03-22T06:11:12.701Z,11.93
2023-03-22T06:14:21.334Z,12.37
2023-03-22T06:17:43.040Z,12.63
2023-03-22T06:20:54.277Z,12.70
2023-03-22T06:24:04.433Z,12.80
2023-03-22T06:27:13.012Z,12.30
2023-03-22T06:30:22.495Z,12.83
2023-03-22T06:33:46.575Z,12.33
2023-03-22T06:37:07.090Z,12.97
2023-03-22T06:40:20.370Z,12.80
2023-03-22T06:43:28.904Z,12.93
2023-03-22T06:46:49.409Z,12.87
2023-03-22T06:50:30.444Z,13.00
2023-03-22T06:53:49.614Z,12.97
2023-03-22T06:56:59.511Z,13.30
2023-03-22T07:00:10.096Z,13.60
2023-03-22T07:03:18.369Z,13.97
2023-03-22T07:06:32.709Z,13.50
2023-03-22T07:09:41.581Z,13.93
2023-03-22T07:12:51.540Z,13.40
2023-03-22T07:16:03.312Z,13.23
2023-03-22T07:19:24.471Z,13.63
2023-03-22T07:22:33.130Z,14.73
2023-03-22T07:25:41.647Z,14.13
2023-03-22T07:29:02.601Z,14.73
2023-03-22T07:32:14.199Z,17.37
2023-03-22T07:35:46.509Z,16.33
2023-03-22T07:38:55.004Z,15.70
2023-03-22T07:42:09.586Z,16.60
2023-03-22T07:45:20.398Z,17.80
2023-03-22T07:48:51.491Z,17.50
2023-03-22T07:52:20.229Z,17.53
2023-03-22T07:55:29.482Z,17.73
2023-03-22T07:58:37.940Z,16.93
2023-03-22T08:01:47.861Z,16.70
2023-03-22T08:05:07.367Z,17.30
2023-03-22T08:08:19.191Z,17.53
2023-03-22T08:11:28.578Z,16.50
2023-03-22T08:14:37.673Z,18.20
2023-03-22T08:17:52.481Z,17.93
2023-03-22T08:21:11.487Z,17.77
2023-03-22T08:24:20.381Z,17.70
2023-03-22T08:27:38.648Z,17.50
2023-03-22T08:30:49.166Z,17.27
2023-03-22T08:34:00.134Z,16.80
2023-03-22T08:37:09.838Z,17.80
2023-03-22T08:40:18.393Z,16.53
2023-03-22T08:43:31.723Z,16.73
2023-03-22T08:46:40.328Z,16.97
2023-03-22T08:49:50.080Z,16.03
2023-03-22T08:53:05.717Z,16.90
2023-03-22T08:56:17.170Z,16.63
2023-03-22T08:59:37.057Z,15.87
2023-03-22T09:03:05.932Z,15.57
2023-03-22T09:06:16.400Z,14.83
2023-03-22T09:09:25.370Z,14.90
2023-03-22T09:12:35.797Z,14.10
2023-03-22T09:15:45.936Z,15.50
2023-03-22T09:19:03.419Z,14.97
2023-03-22T09:22:14.284Z,13.77
2023-03-22T09:25:28.249Z,11.67
2023-03-22T09:28:37.475Z,11.50
2023-03-22T09:31:49.485Z,12.97
2023-03-22T09:35:01.871Z,12.37
2023-03-22T09:38:21.143Z,12.33
2023-03-22T09:41:37.939Z,11.50
2023-03-22T09:44:47.717Z,11.93
2023-03-22T09:48:02.085Z,12.83
2023-03-22T09:51:23.167Z,11.73
2023-03-22T09:54:35.495Z,11.83
2023-03-22T09:57:43.814Z,11.57
2023-03-22T10:00:57.697Z,9.53
2023-03-22T10:04:27.206Z,12.03
2023-03-22T10:07:45.429Z,10.97
2023-03-22T10:10:55.359Z,11.33
2023-03-22T10:14:23.583Z,11.77
2023-03-22T10:17:32.798Z,11.87
2023-03-22T10:20:45.332Z,10.53
2023-03-22T10:23:57.614Z,11.20
2023-03-22T10:27:16.083Z,12.27
2023-03-22T10:30:27.091Z,12.90
2023-03-22T10:33:50.078Z,12.40
2023-03-22T10:37:02.677Z,12.57
2023-03-22T10:40:18.247Z,10.90
2023-03-22T10:43:33.862Z,10.70
2023-03-22T10:46:43.757Z,11.03
2023-03-22T10:49:55.940Z,10.33
2023-03-22T10:53:06.942Z,11.53
2023-03-22T10:56:18.820Z,9.83
2023-03-22T10:59:48.600Z,10.60
2023-03-22T11:03:01.707Z,11.30
2023-03-22T11:06:12.497Z,10.93
2023-03-22T11:09:23.577Z,11.30
2023-03-22T11:12:31.972Z,9.43
2023-03-22T11:15:43.564Z,10.47
2023-03-22T11:18:52.223Z,9.80
2023-03-22T11:22:01.350Z,9.00
2023-03-22T11:25:16.856Z,10.63
2023-03-22T11:28:29.582Z,9.53
2023-03-22T11:32:01.366Z,9.33
2023-03-22T11:35:14.960Z,9.90
2023-03-22T11:38:29.590Z,8.13
2023-03-22T11:41:40.513Z,8.67
2023-03-22T11:44:49.397Z,9.30
2023-03-22T11:48:03.672Z,9.63
2023-03-22T11:51:14.986Z,9.10
2023-03-22T11:54:30.550Z,9.07
2023-03-22T11:57:39.056Z,9.10
2023-03-22T12:00:52.363Z,9.53
2023-03-22T12:04:06.727Z,9.50
2023-03-22T12:07:17.343Z,10.40
2023-03-22T12:10:31.001Z,10.43
2023-03-22T12:13:50.123Z,11.00
2023-03-22T12:17:02.785Z,10.60
2023-03-22T12:20:21.526Z,10.57
2023-03-22T12:23:31.788Z,10.50
2023-03-22T12:26:40.804Z,11.27
2023-03-22T12:29:55.256Z,10.87
2023-03-22T12:33:06.948Z,11.23
2023-03-22T12:36:20.577Z,11.27
2023-03-22T12:39:33.576Z,10.73
2023-03-22T12:42:54.148Z,11.60
2023-03-22T12:46:06.518Z,10.87
2023-03-22T12:49:22.512Z,11.33
2023-03-22T12:52:45.445Z,12.60
2023-03-22T12:55:55.589Z,11.23
2023-03-22T12:59:06.598Z,11.87
2023-03-22T13:02:18.408Z,11.23
2023-03-22T13:05:30.890Z,11.63
2023-03-22T13:09:16.994Z,11.83
2023-03-22T13:12:34.432Z,11.27
2023-03-22T13:15:59.236Z,9.67
2023-03-22T13:19:29.990Z,10.70
2023-03-22T13:23:10.589Z,10.30
2023-03-22T13:26:21.876Z,9.93
2023-03-22T13:29:37.506Z,9.47
2023-03-22T13:32:54.626Z,10.17
2023-03-22T13:36:09.250Z,9.27
2023-03-22T13:39:18.546Z,8.57
2023-03-22T13:42:36.803Z,9.20
2023-03-22T13:46:07.883Z,8.93
2023-03-22T13:49:32.783Z,9.33
2023-03-22T13:52:45.082Z,9.30
2023-03-22T13:56:03.610Z,9.33
2023-03-22T13:59:15.549Z,10.03
2023-03-22T14:02:29.279Z,9.37
2023-03-22T14:05:39.602Z,9.23
2023-03-22T14:08:51.864Z,9.57
2023-03-22T14:12:08.554Z,8.87
2023-03-22T14:15:20.832Z,9.47
2023-03-22T14:18:31.775Z,8.90
2023-03-22T14:21:43.643Z,8.97
